createdAt,value
2023-09-13T00:04:15.183Z,4.43
2023-09-13T00:09:18.350Z,3.78
2023-09-13T00:14:21.480Z,4.10
2023-09-13T00:19:24.413Z,4.05
2023-09-13T00:24:27.352Z,3.83
2023-09-13T00:29:33.159Z,3.97
2023-09-13T00:34:35.876Z,3.90
2023-09-13T00:39:39.552Z,4.15
2023-09-13T00:44:42.378Z,4.30
2023-09-13T00:49:46.727Z,3.42
2023-09-13T00:54:49.960Z,3.03
2023-09-13T00:59:53.538Z,4.03
2023-09-13T01:04:56.518Z,4.13
2023-09-13T01:21:10.469Z,4.35
2023-09-13T01:26:22.187Z,4.85
2023-09-13T01:31:26.344Z,5.07
2023-09-13T01:36:29.922Z,5.78
2023-09-13T01:41:38.828Z,5.50
2023-09-13T01:46:44.806Z,6.47
2023-09-13T01:51:48.566Z,5.70
2023-09-13T01:56:51.608Z,5.80
2023-09-13T02:01:54.761Z,6.15
2023-09-13T02:06:57.710Z,7.30
2023-09-13T02:12:00.646Z,7.05
2023-09-13T02:17:03.980Z,6.82
2023-09-13T02:22:26.845Z,6.70
2023-09-13T02:27:30.726Z,5.30
2023-09-13T02:32:33.666Z,4.22
2023-09-13T02:37:36.995Z,15.60
2023-09-13T02:42:39.948Z,22.58
2023-09-13T02:47:43.461Z,17.17
2023-09-13T02:52:46.171Z,14.93
2023-09-13T02:57:49.159Z,10.43
2023-09-13T03:02:52.741Z,7.30
2023-09-13T03:07:58.432Z,5.78
2023-09-13T03:13:01.420Z,6.63
2023-09-13T03:18:04.764Z,9.60
2023-09-13T03:23:07.783Z,9.20
2023-09-13T03:28:11.019Z,6.38
2023-09-13T03:33:14.527Z,4.80
2023-09-13T03:38:17.468Z,4.18
2023-09-13T03:43:20.404Z,4.82
2023-09-13T03:48:23.590Z,12.55
2023-09-13T03:53:27.290Z,11.93
2023-09-13T03:58:31.226Z,10.57
2023-09-13T04:03:34.272Z,8.20
2023-09-13T04:08:37.277Z,5.53
2023-09-13T04:13:40.403Z,3.92
2023-09-13T04:18:43.537Z,3.72
2023-09-13T04:23:46.910Z,3.05
2023-09-13T04:28:49.976Z,5.95
2023-09-13T04:33:55.583Z,8.45
2023-09-13T04:39:06.477Z,6.07
2023-09-13T04:44:09.544Z,5.90
2023-09-13T04:49:14.111Z,6.85
2023-09-13T04:54:17.018Z,6.13
2023-09-13T04:59:20.352Z,3.70
2023-09-13T05:04:24.462Z,2.78
2023-09-13T05:09:27.544Z,3.40
2023-09-13T05:14:30.429Z,4.28
2023-09-13T05:19:33.231Z,3.40
2023-09-13T05:24:36.317Z,3.22
2023-09-13T05:29:39.364Z,3.22
2023-09-13T05:34:46.004Z,3.25
2023-09-13T05:39:55.150Z,3.00
2023-09-13T05:44:58.109Z,3.10
2023-09-13T05:50:01.624Z,2.72
2023-09-13T05:55:06.893Z,3.47
2023-09-13T06:00:11.076Z,3.10
2023-09-13T06:05:16.907Z,2.72
2023-09-13T06:10:19.932Z,4.18
2023-09-13T06:15:23.187Z,4.43
2023-09-13T06:20:28.248Z,3.33
2023-09-13T06:25:31.256Z,2.78
2023-09-13T06:30:34.157Z,3.28
2023-09-13T06:35:38.904Z,3.45
2023-09-13T06:40:46.034Z,3.50
2023-09-13T06:46:03.468Z,4.00
2023-09-13T06:56:14.422Z,3.67
2023-09-13T07:01:42.669Z,3.80
2023-09-13T07:06:43.543Z,3.47
2023-09-13T07:11:46.430Z,4.07
2023-09-13T07:16:50.149Z,4.28
2023-09-13T07:21:53.088Z,4.00
2023-09-13T07:26:58.971Z,3.70
2023-09-13T07:32:04.161Z,3.20
2023-09-13T07:37:07.164Z,3.60
2023-09-13T07:42:10.574Z,3.15
2023-09-13T07:47:13.885Z,4.43
2023-09-13T07:52:16.736Z,3.50
2023-09-13T07:58:02.382Z,3.58
2023-09-13T08:03:06.098Z,2.90
2023-09-13T08:08:10.803Z,3.00
2023-09-13T08:13:13.656Z,2.33
2023-09-13T08:18:16.733Z,2.70
2023-09-13T08:23:19.583Z,2.70
2023-09-13T08:28:22.427Z,2.05
2023-09-13T08:33:25.300Z,1.92
2023-09-13T08:38:28.206Z,2.05
2023-09-13T08:43:33.776Z,2.83
2023-09-13T08:48:38.778Z,2.70
2023-09-13T08:53:42.678Z,2.10
2023-09-13T08:58:46.091Z,2.25
2023-09-13T09:03:50.356Z,3.03
2023-09-13T09:08:54.872Z,3.00
2023-09-13T09:14:00.463Z,2.78
2023-09-13T09:19:06.287Z,2.78
2023-09-13T09:24:09.084Z,2.88
2023-09-13T09:29:16.585Z,2.50
2023-09-13T09:34:19.562Z,2.88
2023-09-13T09:39:23.607Z,3.65
2023-09-13T09:44:30.355Z,3.92
2023-09-13T09:49:33.463Z,2.60
2023-09-13T09:54:38.497Z,2.80
2023-09-13T09:59:41.520Z,2.40
2023-09-13T10:04:52.814Z,2.70
2023-09-13T10:09:57.012Z,2.95
2023-09-13T10:15:05.533Z,2.97
2023-09-13T10:20:10.243Z,3.22
2023-09-13T10:25:17.466Z,3.20
2023-09-13T10:30:26.356Z,2.72
2023-09-13T10:35:34.087Z,3.67
2023-09-13T10:40:45.458Z,3.28
2023-09-13T10:45:49.200Z,3.15
2023-09-13T10:50:55.648Z,3.58
2023-09-13T10:55:58.861Z,4.07
2023-09-13T11:01:02.036Z,3.65
2023-09-13T11:06:05.547Z,3.50
2023-09-13T11:11:19.579Z,5.97
2023-09-13T11:16:24.992Z,2.00
2023-09-13T11:21:56.210Z,1.98
2023-09-13T11:27:31.094Z,2.72
2023-09-13T11:32:34.537Z,3.63
2023-09-13T11:37:37.823Z,4.15
2023-09-13T11:42:58.600Z,4.13
2023-09-13T11:48:07.066Z,3.90
2023-09-13T11:53:20.642Z,3.00
2023-09-13T11:58:50.901Z,2.75
2023-09-13T12:09:18.646Z,3.05
2023-09-13T12:14:39.390Z,2.90
2023-09-13T12:19:48.923Z,4.57
2023-09-13T12:25:00.309Z,4.22
2023-09-13T12:30:07.891Z,4.45
2023-09-13T12:35:11.467Z,3.38
2023-09-13T12:40:17.892Z,3.40
2023-09-13T12:45:21.231Z,1.92
2023-09-13T12:55:51.567Z,2.40
2023-09-13T13:00:58.145Z,2.05
2023-09-13T13:06:03.463Z,2.70
2023-09-13T13:11:07.743Z,3.47
2023-09-13T13:16:32.538Z,3.20
2023-09-13T13:21:43.113Z,7.70
2023-09-13T13:26:46.035Z,7.93
2023-09-13T13:31:49.069Z,8.85
2023-09-13T13:36:54.965Z,6.07
2023-09-13T13:41:59.913Z,5.47
2023-09-13T13:47:22.082Z,5.88
2023-09-13T13:52:24.900Z,3.88
2023-09-13T13:57:27.839Z,2.83
2023-09-13T14:02:37.796Z,2.58
2023-09-13T14:07:40.763Z,3.00
2023-09-13T14:12:43.846Z,2.80
2023-09-13T14:17:46.694Z,2.33
2023-09-13T14:22:49.409Z,2.40
2023-09-13T14:28:08.958Z,2.17
2023-09-13T14:33:18.146Z,2.72
2023-09-13T14:38:22.136Z,2.50
2023-09-13T14:48:27.723Z,2.38
2023-09-13T14:53:49.362Z,2.83
2023-09-13T14:58:52.307Z,2.17
2023-09-13T15:03:55.401Z,2.55
2023-09-13T15:08:59.549Z,2.40
2023-09-13T15:19:05.117Z,2.22
2023-09-13T15:24:08.188Z,2.30
2023-09-13T15:29:11.013Z,3.30
2023-09-13T15:34:13.788Z,3.05
2023-09-13T15:39:18.033Z,2.72
2023-09-13T15:49:27.265Z,3.00
2023-09-13T15:54:30.119Z,3.28
2023-09-13T15:59:33.933Z,2.83
2023-09-13T16:04:36.898Z,2.83
2023-09-13T16:09:39.875Z,4.18
2023-09-13T16:14:42.882Z,3.70
2023-09-13T16:19:45.799Z,3.92
2023-09-13T16:24:48.478Z,4.78
2023-09-13T16:29:51.193Z,4.22
2023-09-13T16:34:54.343Z,3.50
2023-09-13T16:39:59.968Z,3.88
2023-09-13T16:45:03.478Z,5.38
2023-09-13T16:50:08.659Z,6.70
2023-09-13T16:55:11.453Z,5.78
2023-09-13T17:00:14.540Z,4.90
2023-09-13T17:05:17.495Z,6.57
2023-09-13T17:10:20.471Z,4.95
2023-09-13T17:15:23.710Z,5.70
2023-09-13T17:20:33.312Z,5.15
2023-09-13T17:25:37.178Z,6.00
2023-09-13T17:30:40.210Z,6.07
2023-09-13T17:35:43.321Z,6.20
2023-09-13T17:40:47.871Z,6.40
2023-09-13T17:45:51.979Z,5.88
2023-09-13T17:50:55.844Z,6.07
2023-09-13T17:55:59.256Z,5.65
2023-09-13T18:01:02.005Z,6.40
2023-09-13T18:06:05.004Z,5.80
2023-09-13T18:11:08.062Z,5.50
2023-09-13T18:16:20.765Z,6.05
2023-09-13T18:21:24.244Z,7.45
2023-09-13T18:26:26.958Z,7.97
2023-09-13T18:31:29.838Z,7.38
2023-09-13T18:36:32.671Z,7.03
2023-09-13T18:41:35.896Z,6.10
2023-09-13T18:46:38.953Z,6.30
2023-09-13T18:51:43.564Z,6.82
2023-09-13T18:56:48.715Z,7.00
2023-09-13T19:01:51.816Z,6.03
2023-09-13T19:07:08.464Z,6.15
2023-09-13T19:12:12.984Z,6.22
2023-09-13T19:17:15.837Z,5.93
2023-09-13T19:22:18.566Z,6.47
2023-09-13T19:27:21.776Z,6.38
2023-09-13T19:32:24.814Z,5.53
2023-09-13T19:37:27.999Z,5.53
2023-09-13T19:42:31.547Z,5.32
2023-09-13T19:47:34.586Z,5.95
2023-09-13T19:52:37.334Z,6.55
2023-09-13T19:57:40.190Z,6.93
2023-09-13T20:02:43.222Z,8.65
2023-09-13T20:07:46.243Z,8.80
2023-09-13T20:12:48.968Z,8.15
2023-09-13T20:17:52.080Z,8.02
2023-09-13T20:22:55.839Z,7.97
2023-09-13T20:27:59.283Z,8.52
2023-09-13T20:33:03.829Z,7.25
2023-09-13T20:38:08.580Z,10.02
2023-09-13T20:43:12.065Z,8.75
2023-09-13T20:48:15.336Z,9.18
2023-09-13T20:53:18.122Z,7.70
2023-09-13T20:58:21.261Z,7.57
2023-09-13T21:03:24.810Z,7.22
2023-09-13T21:08:27.697Z,7.00
2023-09-13T21:13:30.318Z,6.45
2023-09-13T21:18:33.270Z,8.15
2023-09-13T21:23:36.081Z,7.85
2023-09-13T21:28:40.698Z,7.63
2023-09-13T21:33:45.997Z,8.25
2023-09-13T21:38:49.646Z,7.95
2023-09-13T21:43:52.336Z,8.15
2023-09-13T21:48:55.293Z,8.35
2023-09-13T21:53:58.153Z,8.20
2023-09-13T21:59:01.069Z,9.05
2023-09-13T22:04:04.400Z,8.65
2023-09-13T22:09:07.433Z,9.80
2023-09-13T22:14:10.469Z,8.60
2023-09-13T22:19:13.548Z,8.70
2023-09-13T22:24:16.477Z,8.77
2023-09-13T22:29:19.311Z,8.20
2023-09-13T22:34:22.087Z,8.95
2023-09-13T22:39:25.321Z,8.70
2023-09-13T22:44:28.389Z,8.95
2023-09-13T22:49:32.379Z,8.20
2023-09-13T22:54:35.412Z,8.32
2023-09-13T22:59:38.301Z,7.90
2023-09-13T23:04:43.542Z,8.65
2023-09-13T23:09:46.729Z,9.13
2023-09-13T23:14:49.719Z,9.02
2023-09-13T23:19:52.391Z,9.93
2023-09-13T23:24:55.219Z,9.48
2023-09-13T23:29:58.214Z,9.63
2023-09-13T23:35:01.081Z,8.18
2023-09-13T23:40:07.449Z,8.23
2023-09-13T23:45:10.862Z,8.35
2023-09-13T23:50:13.769Z,7.95
2023-09-13T23:55:16.794Z,8.95
